Dexter, New Mexico
Current Conditions -  °F | °C
As of 3:51 AM on Tuesday 21 Oct 2014 (Local Time) from KROW Reporting Station
Light Rain Light Rain  
Wind Chill: 58°   Ceiling: 7000
Heat Index: 58°   Visibility: 10mi
Dew Point: 55°   Wind: 3mph
Humidity: 90%   Direction: 280°W
Pressure: 30.11"   Gusts: NA
Location:  33.2°N, 104.37°W
Report Text: KROW 210951Z AUTO 28003KT 10SM -RA SCT050 BKN070 OVC085 14/13 A3011 RMK AO2 SLP148 P0007 T01440128
Loading
Personal Weather Stations






























Interactive Weather Map
Tropical Storm Tracking
New forecast layout! Learn more

10-Day Weather Forecast

Advertisements
Track Severe Weather on mobile